Time;durP1;ratioP1;P1;durP2;ratioP2;P2;SDS_P1;SDS_P2;PMS_P1;PMS_P2;Temp;Humidity;BMP_temperature;BMP_pressure;BME280_temperature;BME280_humidity;BME280_pressure;Samples;Min_cycle;Max_cycle;Signal;HPM_P1;HPM_P2
2021/12/29 00:00:21;;;;;;;4.70;0.88;;;;;;;;;;4952472;28;20498;-66
2021/12/29 00:02:48;;;;;;;3.53;0.95;;;;;;;;;;4952066;28;20047;-66
2021/12/29 00:05:15;;;;;;;4.65;0.60;;;;;;;;;;4936493;28;20057;-65
2021/12/29 00:07:41;;;;;;;6.20;0.90;;;;;;;;;;4948268;29;20341;-65
2021/12/29 00:10:08;;;;;;;5.72;1.20;;;;;;;;;;4950928;28;20055;-65
2021/12/29 00:12:40;;;;;;;5.75;0.95;;;;;;;;;;4951069;28;20491;-65
2021/12/29 00:15:09;;;;;;;5.22;1.05;;;;;;;;;;4952504;28;20055;-65
2021/12/29 00:17:36;;;;;;;4.47;0.85;;;;;;;;;;4955244;28;20125;-66
2021/12/29 00:20:03;;;;;;;3.20;0.60;;;;;;;;;;4970258;28;20055;-66
2021/12/29 00:22:30;;;;;;;3.85;0.73;;;;;;;;;;4971134;28;20494;-65
2021/12/29 00:24:57;;;;;;;5.45;0.82;;;;;;;;;;4972469;28;20129;-65
2021/12/29 00:27:23;;;;;;;4.07;0.82;;;;;;;;;;4971383;28;20095;-65
2021/12/29 00:29:50;;;;;;;3.13;0.70;;;;;;;;;;4972408;28;20058;-65
2021/12/29 00:32:16;;;;;;;2.50;0.60;;;;;;;;;;4972732;28;20059;-66
2021/12/29 00:34:43;;;;;;;3.42;1.08;;;;;;;;;;4972337;28;20569;-65
2021/12/29 00:37:10;;;;;;;5.88;0.85;;;;;;;;;;4972475;28;20042;-66
2021/12/29 00:39:36;;;;;;;3.70;0.90;;;;;;;;;;4971211;28;20462;-66
2021/12/29 00:42:03;;;;;;;4.32;0.63;;;;;;;;;;4972633;28;20086;-66
2021/12/29 00:44:32;;;;;;;4.10;0.68;;;;;;;;;;4971147;28;20055;-66
2021/12/29 00:46:59;;;;;;;4.68;0.82;;;;;;;;;;4955928;28;20051;-65
2021/12/29 00:49:32;;;;;;;4.28;1.10;;;;;;;;;;4953143;28;20556;-66
2021/12/29 00:52:00;;;;;;;4.82;0.60;;;;;;;;;;4952423;28;20051;-66
2021/12/29 00:54:27;;;;;;;4.55;1.02;;;;;;;;;;4955443;28;20102;-65
2021/12/29 00:56:54;;;;;;;1.98;0.65;;;;;;;;;;4970382;28;20465;-66
2021/12/29 00:59:21;;;;;;;4.53;0.68;;;;;;;;;;4975873;28;20051;-66
2021/12/29 01:01:48;;;;;;;4.32;0.60;;;;;;;;;;4974612;28;20137;-66
2021/12/29 01:04:15;;;;;;;1.65;0.30;;;;;;;;;;4974760;28;20055;-65
2021/12/29 01:06:42;;;;;;;4.97;0.90;;;;;;;;;;4974526;28;20461;-66
2021/12/29 01:09:08;;;;;;;3.20;0.80;;;;;;;;;;4975663;28;20050;-66
2021/12/29 01:11:35;;;;;;;2.95;0.70;;;;;;;;;;4970679;23;20103;-66
2021/12/29 01:14:02;;;;;;;3.97;0.70;;;;;;;;;;4937089;29;20114;-67
2021/12/29 01:19:13;;;;;;;1.50;0.60;;;;;;;;;;4956386;28;20564;-66
2021/12/29 01:21:42;;;;;;;3.55;0.88;;;;;;;;;;4954842;28;20051;-67
2021/12/29 01:24:09;;;;;;;1.95;0.68;;;;;;;;;;4948713;28;20056;-67
2021/12/29 01:26:36;;;;;;;2.78;0.60;;;;;;;;;;4936871;29;20110;-67
2021/12/29 01:29:03;;;;;;;3.33;0.47;;;;;;;;;;4936946;29;20051;-66
2021/12/29 01:31:30;;;;;;;2.92;0.45;;;;;;;;;;4936880;29;20051;-66
2021/12/29 01:33:59;;;;;;;1.95;0.50;;;;;;;;;;4936903;29;20056;-66
2021/12/29 01:36:26;;;;;;;1.02;0.43;;;;;;;;;;4936893;29;20052;-66
2021/12/29 01:38:53;;;;;;;1.88;0.57;;;;;;;;;;4936974;29;20415;-67
2021/12/29 01:41:20;;;;;;;2.30;0.45;;;;;;;;;;4936801;29;20060;-66
2021/12/29 01:43:46;;;;;;;1.52;0.40;;;;;;;;;;4936584;29;20498;-66
2021/12/29 01:46:13;;;;;;;1.50;0.43;;;;;;;;;;4936798;29;20055;-67
2021/12/29 01:48:39;;;;;;;1.25;0.52;;;;;;;;;;4936568;29;20129;-67
2021/12/29 01:51:06;;;;;;;2.92;0.40;;;;;;;;;;4936597;29;20051;-67
2021/12/29 01:53:34;;;;;;;3.85;1.13;;;;;;;;;;4936379;29;20499;-66
2021/12/29 01:56:01;;;;;;;1.48;0.30;;;;;;;;;;4937015;29;20056;-67
2021/12/29 01:58:29;;;;;;;4.00;0.93;;;;;;;;;;4935449;29;20102;-67
2021/12/29 02:00:58;;;;;;;1.92;0.80;;;;;;;;;;4936244;29;20115;-66
2021/12/29 02:03:25;;;;;;;2.67;0.32;;;;;;;;;;4935872;29;20130;-66
2021/12/29 02:05:53;;;;;;;2.15;0.40;;;;;;;;;;4936184;29;20114;-67
2021/12/29 02:08:23;;;;;;;0.63;0.30;;;;;;;;;;4936390;29;20099;-67
2021/12/29 02:10:53;;;;;;;1.90;0.50;;;;;;;;;;4940710;28;20064;-67
2021/12/29 02:13:20;;;;;;;0.50;0.20;;;;;;;;;;4936159;29;20151;-67
2021/12/29 02:15:47;;;;;;;1.85;0.40;;;;;;;;;;4936214;29;20055;-67
2021/12/29 02:18:15;;;;;;;3.45;0.32;;;;;;;;;;4936057;29;20495;-67
2021/12/29 02:20:45;;;;;;;2.03;0.22;;;;;;;;;;4935891;29;20083;-67
2021/12/29 02:23:31;;;;;;;1.13;0.38;;;;;;;;;;4935989;29;20048;-67
2021/12/29 02:25:58;;;;;;;1.15;0.50;;;;;;;;;;4950557;29;20415;-67
2021/12/29 02:28:31;;;;;;;1.52;0.30;;;;;;;;;;4935787;29;20047;-67
2021/12/29 02:31:00;;;;;;;1.42;0.35;;;;;;;;;;4935874;29;20557;-67
2021/12/29 02:33:30;;;;;;;0.60;0.30;;;;;;;;;;4935629;29;20051;-67
2021/12/29 02:35:58;;;;;;;2.78;0.47;;;;;;;;;;4935838;29;20051;-67
2021/12/29 02:38:27;;;;;;;1.08;0.50;;;;;;;;;;4935662;29;20488;-67
2021/12/29 02:40:57;;;;;;;2.10;0.40;;;;;;;;;;4935562;29;20052;-67
2021/12/29 02:43:25;;;;;;;1.67;0.45;;;;;;;;;;4935839;29;20468;-67
2021/12/29 02:45:58;;;;;;;0.73;0.30;;;;;;;;;;4935893;29;20056;-67
2021/12/29 02:48:27;;;;;;;1.58;0.38;;;;;;;;;;4935440;29;20565;-67
2021/12/29 02:50:56;;;;;;;1.38;0.30;;;;;;;;;;4935365;29;20051;-67
2021/12/29 02:53:24;;;;;;;1.35;0.30;;;;;;;;;;4935446;29;20118;-67
2021/12/29 02:55:53;;;;;;;1.75;0.40;;;;;;;;;;4935558;29;20463;-67
2021/12/29 02:58:21;;;;;;;2.15;0.32;;;;;;;;;;4935381;29;20043;-67
2021/12/29 03:00:48;;;;;;;0.40;0.28;;;;;;;;;;4935291;29;20056;-66
2021/12/29 03:03:20;;;;;;;3.03;0.80;;;;;;;;;;4935178;29;20055;-66
2021/12/29 03:05:47;;;;;;;2.70;0.40;;;;;;;;;;4940370;29;20098;-66
2021/12/29 03:08:14;;;;;;;3.33;0.30;;;;;;;;;;4954271;28;20425;-66
2021/12/29 03:10:41;;;;;;;0.88;0.22;;;;;;;;;;4954104;28;20052;-66
2021/12/29 03:13:09;;;;;;;1.65;0.25;;;;;;;;;;4954266;28;20098;-67
2021/12/29 03:15:36;;;;;;;2.92;0.50;;;;;;;;;;4952399;28;20403;-67
2021/12/29 03:18:04;;;;;;;2.33;0.52;;;;;;;;;;4946871;28;20048;-66
2021/12/29 03:20:31;;;;;;;1.33;0.60;;;;;;;;;;4931827;29;20499;-66
2021/12/29 03:22:58;;;;;;;1.77;0.40;;;;;;;;;;4934672;29;20056;-66
2021/12/29 03:25:24;;;;;;;3.15;0.60;;;;;;;;;;4935921;29;20107;-66
2021/12/29 03:27:51;;;;;;;1.23;0.40;;;;;;;;;;4953692;28;20051;-67
2021/12/29 03:30:18;;;;;;;1.10;0.30;;;;;;;;;;4954099;28;20047;-66
2021/12/29 03:32:51;;;;;;;2.00;0.40;;;;;;;;;;4953887;28;20059;-66
2021/12/29 03:35:20;;;;;;;2.30;0.38;;;;;;;;;;4953012;28;20078;-67
2021/12/29 03:37:46;;;;;;;5.22;0.70;;;;;;;;;;4934454;29;20115;-67
2021/12/29 03:40:13;;;;;;;1.45;0.47;;;;;;;;;;4934868;29;20051;-66
2021/12/29 03:42:40;;;;;;;3.53;0.75;;;;;;;;;;4934402;29;20051;-66
2021/12/29 03:45:06;;;;;;;1.80;0.50;;;;;;;;;;4934674;29;20055;-66
2021/12/29 03:47:33;;;;;;;2.08;0.30;;;;;;;;;;4952634;29;20559;-66
2021/12/29 03:50:00;;;;;;;2.25;0.60;;;;;;;;;;4954003;28;20047;-66
2021/12/29 03:52:27;;;;;;;1.02;0.30;;;;;;;;;;4953712;28;20051;-67
2021/12/29 03:54:54;;;;;;;1.05;0.32;;;;;;;;;;4953723;28;20422;-67
2021/12/29 03:57:20;;;;;;;2.97;0.80;;;;;;;;;;4952932;28;20110;-67
2021/12/29 03:59:47;;;;;;;1.65;0.38;;;;;;;;;;4953538;28;20051;-67
2021/12/29 04:02:13;;;;;;;0.40;0.20;;;;;;;;;;4953627;28;20051;-67
2021/12/29 04:04:40;;;;;;;0.95;0.35;;;;;;;;;;4953443;28;20449;-66
2021/12/29 04:07:07;;;;;;;0.73;0.17;;;;;;;;;;4941044;28;20048;-67
2021/12/29 04:09:33;;;;;;;1.55;0.40;;;;;;;;;;4933246;29;20471;-66
2021/12/29 04:12:00;;;;;;;1.52;0.30;;;;;;;;;;4934323;29;20060;-67
2021/12/29 04:14:27;;;;;;;0.68;0.20;;;;;;;;;;4934216;29;20056;-67
2021/12/29 04:16:56;;;;;;;0.52;0.20;;;;;;;;;;4934417;29;20475;-67
2021/12/29 04:19:32;;;;;;;0.60;0.30;;;;;;;;;;4934189;29;20079;-67
2021/12/29 04:21:58;;;;;;;1.52;0.40;;;;;;;;;;4934420;29;20111;-67
2021/12/29 04:24:25;;;;;;;0.82;0.28;;;;;;;;;;4934255;29;20550;-67
2021/12/29 04:26:52;;;;;;;0.82;0.45;;;;;;;;;;4946905;28;20054;-67
2021/12/29 04:29:18;;;;;;;0.98;0.43;;;;;;;;;;4957024;28;20487;-67
2021/12/29 04:31:45;;;;;;;0.60;0.10;;;;;;;;;;4957043;28;20058;-67
2021/12/29 04:34:12;;;;;;;0.17;0.10;;;;;;;;;;4957137;28;20102;-67
2021/12/29 04:36:38;;;;;;;0.35;0.10;;;;;;;;;;4957105;28;20358;-67
2021/12/29 04:39:05;;;;;;;0.10;0.05;;;;;;;;;;4957249;28;20083;-66
2021/12/29 04:41:32;;;;;;;1.17;0.30;;;;;;;;;;4945119;29;20471;-67
2021/12/29 04:43:59;;;;;;;0.55;0.10;;;;;;;;;;4937871;29;20110;-66
2021/12/29 04:46:36;;;;;;;1.35;0.20;;;;;;;;;;4937753;29;20055;-67
2021/12/29 04:49:04;;;;;;;0.32;0.10;;;;;;;;;;4937674;29;20052;-67
2021/12/29 04:51:35;;;;;;;0.55;0.10;;;;;;;;;;4937546;29;20051;-67
2021/12/29 04:54:04;;;;;;;0.38;0.05;;;;;;;;;;4937638;29;20080;-67
2021/12/29 04:56:31;;;;;;;0.90;0.20;;;;;;;;;;4937532;29;20114;-67
2021/12/29 04:58:58;;;;;;;0.28;0.10;;;;;;;;;;4936389;29;20506;-67
2021/12/29 05:01:25;;;;;;;1.23;0.30;;;;;;;;;;4937387;29;20479;-67
2021/12/29 05:03:53;;;;;;;0.25;0.10;;;;;;;;;;4937397;29;20055;-67
2021/12/29 05:08:49;;;;;;;1.10;0.10;;;;;;;;;;4956066;28;20055;-67
2021/12/29 05:11:16;;;;;;;1.08;0.20;;;;;;;;;;4956198;28;20641;-67
2021/12/29 05:13:44;;;;;;;0.63;0.30;;;;;;;;;;4956411;28;20051;-67
2021/12/29 05:16:11;;;;;;;0.98;0.20;;;;;;;;;;4939464;28;20052;-67
2021/12/29 05:18:38;;;;;;;0.28;0.10;;;;;;;;;;4937260;29;20059;-67
2021/12/29 05:21:06;;;;;;;0.17;0.08;;;;;;;;;;4937345;29;20518;-67
2021/12/29 05:23:33;;;;;;;0.77;0.45;;;;;;;;;;4936888;29;20498;-67
2021/12/29 05:25:59;;;;;;;0.52;0.17;;;;;;;;;;4937235;29;20491;-67
2021/12/29 05:28:26;;;;;;;1.08;0.20;;;;;;;;;;4936060;29;20099;-67
2021/12/29 05:30:53;;;;;;;1.77;0.30;;;;;;;;;;4936839;29;20059;-67
2021/12/29 05:33:20;;;;;;;0.45;0.10;;;;;;;;;;4936740;29;20056;-67
2021/12/29 05:35:47;;;;;;;0.43;0.10;;;;;;;;;;4950662;29;20051;-67
2021/12/29 05:38:14;;;;;;;2.33;0.28;;;;;;;;;;4955333;28;20052;-67
2021/12/29 05:40:40;;;;;;;1.35;0.20;;;;;;;;;;4955906;28;20283;-67
2021/12/29 05:43:07;;;;;;;2.03;0.38;;;;;;;;;;4955811;28;20055;-66
2021/12/29 05:45:33;;;;;;;0.98;0.20;;;;;;;;;;4955751;28;20051;-67
2021/12/29 05:48:01;;;;;;;3.50;0.25;;;;;;;;;;4955880;28;20086;-67
2021/12/29 05:50:29;;;;;;;1.38;0.38;;;;;;;;;;4955860;28;20059;-67
2021/12/29 05:52:56;;;;;;;0.63;0.38;;;;;;;;;;4955814;28;20110;-67
2021/12/29 05:55:23;;;;;;;1.67;0.30;;;;;;;;;;4955746;28;20047;-67
2021/12/29 05:57:50;;;;;;;1.58;0.22;;;;;;;;;;4955543;28;20470;-67
2021/12/29 06:00:18;;;;;;;0.30;0.20;;;;;;;;;;4955593;28;20047;-67
2021/12/29 06:02:45;;;;;;;1.10;0.40;;;;;;;;;;4955399;28;20047;-67
2021/12/29 06:05:12;;;;;;;1.33;0.20;;;;;;;;;;4955568;28;20094;-67
2021/12/29 06:07:39;;;;;;;0.50;0.22;;;;;;;;;;4955250;28;20102;-67
2021/12/29 06:10:06;;;;;;;1.35;0.40;;;;;;;;;;4955340;28;20089;-67
2021/12/29 06:12:35;;;;;;;1.45;0.30;;;;;;;;;;4955215;28;20047;-67
2021/12/29 06:15:02;;;;;;;2.22;0.90;;;;;;;;;;4953714;29;20051;-67
2021/12/29 06:17:29;;;;;;;1.17;0.28;;;;;;;;;;4955245;29;20098;-67
2021/12/29 06:19:56;;;;;;;1.13;0.40;;;;;;;;;;4954084;29;20102;-67
2021/12/29 06:22:23;;;;;;;1.17;0.30;;;;;;;;;;4955265;28;20059;-67
2021/12/29 06:24:53;;;;;;;1.83;0.40;;;;;;;;;;4949469;28;20478;-67
2021/12/29 06:27:21;;;;;;;1.17;0.52;;;;;;;;;;4935900;29;20052;-67
2021/12/29 06:29:48;;;;;;;1.50;0.40;;;;;;;;;;4936180;29;20118;-67
2021/12/29 06:32:15;;;;;;;1.38;0.70;;;;;;;;;;4935790;29;20110;-67
2021/12/29 06:34:42;;;;;;;1.50;0.45;;;;;;;;;;4935693;29;20491;-67
2021/12/29 06:37:11;;;;;;;1.58;0.47;;;;;;;;;;4936110;29;20052;-67
2021/12/29 06:39:43;;;;;;;1.00;0.40;;;;;;;;;;4935589;29;20051;-67
2021/12/29 06:42:09;;;;;;;5.05;1.17;;;;;;;;;;4935709;29;20470;-67
2021/12/29 06:44:37;;;;;;;1.40;0.77;;;;;;;;;;4935464;29;20196;-67
2021/12/29 06:47:04;;;;;;;5.13;1.58;;;;;;;;;;4937542;29;20101;-67
2021/12/29 06:49:31;;;;;;;1.75;0.80;;;;;;;;;;4935311;29;20044;-67
2021/12/29 06:51:57;;;;;;;3.60;0.82;;;;;;;;;;4935439;29;20055;-67
2021/12/29 06:54:24;;;;;;;2.75;0.90;;;;;;;;;;4935393;29;20077;-67
2021/12/29 06:56:51;;;;;;;3.33;0.82;;;;;;;;;;4935396;29;20111;-67
2021/12/29 06:59:17;;;;;;;1.35;0.70;;;;;;;;;;4935296;29;20055;-67
2021/12/29 07:01:44;;;;;;;5.18;1.13;;;;;;;;;;4935191;29;20056;-67
2021/12/29 07:04:11;;;;;;;3.33;1.25;;;;;;;;;;4934225;29;20058;-67
2021/12/29 07:06:38;;;;;;;3.65;1.02;;;;;;;;;;4935227;29;20081;-66
2021/12/29 07:09:05;;;;;;;4.28;1.00;;;;;;;;;;4934985;29;20506;-66
2021/12/29 07:11:31;;;;;;;4.32;1.38;;;;;;;;;;4966471;23;20129;-64
2021/12/29 07:14:02;;;;;;;5.75;0.77;;;;;;;;;;4954420;28;20550;-63
2021/12/29 07:16:29;;;;;;;4.40;2.28;;;;;;;;;;4954328;28;20365;-63
2021/12/29 07:18:56;;;;;;;6.75;3.70;;;;;;;;;;4953507;28;20047;-63
2021/12/29 07:21:23;;;;;;;7.70;3.08;;;;;;;;;;4953253;28;20051;-63
2021/12/29 07:23:51;;;;;;;5.90;1.70;;;;;;;;;;4953040;28;20055;-64
2021/12/29 07:26:18;;;;;;;4.80;1.58;;;;;;;;;;4953146;28;20083;-64
2021/12/29 07:28:44;;;;;;;11.65;5.70;;;;;;;;;;4952637;28;20102;-63
2021/12/29 07:31:11;;;;;;;17.10;8.48;;;;;;;;;;4954030;28;20103;-63
2021/12/29 07:33:38;;;;;;;10.95;3.75;;;;;;;;;;4953790;28;20051;-63
2021/12/29 07:36:05;;;;;;;5.85;2.30;;;;;;;;;;4945390;28;20569;-63
2021/12/29 07:38:32;;;;;;;7.05;1.30;;;;;;;;;;4944982;28;20573;-63
2021/12/29 07:40:58;;;;;;;6.93;2.42;;;;;;;;;;4941744;28;20044;-63
2021/12/29 07:43:25;;;;;;;3.03;1.30;;;;;;;;;;4944933;28;20192;-62
2021/12/29 07:45:54;;;;;;;4.53;1.35;;;;;;;;;;4940946;28;20267;-63
2021/12/29 07:48:26;;;;;;;6.75;1.67;;;;;;;;;;4936473;29;20471;-62
2021/12/29 07:50:53;;;;;;;7.00;1.77;;;;;;;;;;4947294;28;20051;-64
2021/12/29 07:53:20;;;;;;;4.35;1.20;;;;;;;;;;4949240;28;20110;-63
2021/12/29 07:55:47;;;;;;;3.10;0.98;;;;;;;;;;4944736;28;20047;-63
2021/12/29 07:58:14;;;;;;;4.90;2.10;;;;;;;;;;4939964;29;20060;-63
2021/12/29 08:00:42;;;;;;;6.10;2.30;;;;;;;;;;4922362;28;20464;-63
2021/12/29 08:03:11;;;;;;;5.60;2.15;;;;;;;;;;4935906;28;20396;-63
2021/12/29 08:05:39;;;;;;;3.30;1.50;;;;;;;;;;4939564;28;20045;-62
2021/12/29 08:08:06;;;;;;;3.40;0.85;;;;;;;;;;4937648;29;20056;-63
2021/12/29 08:10:34;;;;;;;1.67;0.60;;;;;;;;;;4947457;28;20039;-63
2021/12/29 08:13:01;;;;;;;1.83;0.70;;;;;;;;;;4920988;29;20055;-63
2021/12/29 08:15:29;;;;;;;3.45;1.10;;;;;;;;;;4948145;28;20071;-64
2021/12/29 08:17:57;;;;;;;2.08;0.73;;;;;;;;;;4939100;28;20051;-63
2021/12/29 08:20:24;;;;;;;3.97;1.15;;;;;;;;;;4938266;28;20078;-63
2021/12/29 08:22:52;;;;;;;5.13;0.75;;;;;;;;;;4937761;28;20088;-63
2021/12/29 08:25:19;;;;;;;2.80;0.70;;;;;;;;;;4940976;28;20055;-63
2021/12/29 08:27:46;;;;;;;3.15;0.90;;;;;;;;;;4931228;28;20130;-63
2021/12/29 08:30:13;;;;;;;5.60;1.23;;;;;;;;;;4938930;28;20043;-63
2021/12/29 08:32:40;;;;;;;2.90;2.08;;;;;;;;;;4940117;28;20051;-62
2021/12/29 08:35:07;;;;;;;1.10;0.90;;;;;;;;;;4936723;28;20107;-63
2021/12/29 08:37:34;;;;;;;1.77;1.02;;;;;;;;;;4938862;28;20098;-63
2021/12/29 08:40:03;;;;;;;3.47;1.08;;;;;;;;;;4937781;29;20463;-63
2021/12/29 08:42:30;;;;;;;2.38;0.95;;;;;;;;;;4933288;29;20052;-63
2021/12/29 08:44:57;;;;;;;1.88;0.88;;;;;;;;;;4937801;29;20470;-63
2021/12/29 08:47:23;;;;;;;3.35;1.05;;;;;;;;;;4938623;28;20079;-63
2021/12/29 08:49:50;;;;;;;1.90;0.63;;;;;;;;;;4938171;29;20051;-63
2021/12/29 08:52:16;;;;;;;1.42;0.60;;;;;;;;;;4938300;28;20059;-64
2021/12/29 08:54:43;;;;;;;3.53;0.60;;;;;;;;;;4938428;29;20550;-64
2021/12/29 08:57:10;;;;;;;2.05;0.50;;;;;;;;;;4941193;28;20059;-64
2021/12/29 08:59:36;;;;;;;2.75;0.70;;;;;;;;;;4938827;28;20047;-64
2021/12/29 09:02:03;;;;;;;2.58;0.73;;;;;;;;;;4937279;28;20570;-62
2021/12/29 09:04:30;;;;;;;1.08;0.40;;;;;;;;;;4932364;29;20443;-72
2021/12/29 09:06:57;;;;;;;2.90;1.10;;;;;;;;;;4942170;28;20107;-67
2021/12/29 09:09:23;;;;;;;2.00;0.80;;;;;;;;;;4943545;28;20094;-68
2021/12/29 09:11:50;;;;;;;2.58;1.00;;;;;;;;;;4941251;28;20110;-66
2021/12/29 09:14:17;;;;;;;3.22;1.08;;;;;;;;;;4948731;28;20055;-65
2021/12/29 09:16:44;;;;;;;2.08;1.05;;;;;;;;;;4942456;29;20055;-70
2021/12/29 09:19:13;;;;;;;2.33;1.00;;;;;;;;;;4941660;29;20459;-70
2021/12/29 09:21:43;;;;;;;2.50;1.00;;;;;;;;;;4942951;29;20115;-66
2021/12/29 09:24:11;;;;;;;2.88;0.93;;;;;;;;;;4947655;28;20043;-68
2021/12/29 09:26:38;;;;;;;2.15;0.93;;;;;;;;;;4935180;28;20048;-68
2021/12/29 09:29:04;;;;;;;2.95;0.90;;;;;;;;;;4935737;29;20047;-66
2021/12/29 09:31:31;;;;;;;1.25;0.70;;;;;;;;;;4950966;28;20102;-69
2021/12/29 09:33:58;;;;;;;2.30;0.93;;;;;;;;;;4939554;28;20130;-68
2021/12/29 09:36:24;;;;;;;3.97;1.70;;;;;;;;;;4942079;28;20202;-67
2021/12/29 09:38:51;;;;;;;4.25;1.52;;;;;;;;;;4949319;28;20062;-69
2021/12/29 09:41:18;;;;;;;3.75;1.60;;;;;;;;;;4943423;29;20047;-71
2021/12/29 09:43:46;;;;;;;6.20;1.23;;;;;;;;;;4915552;29;20062;-66
2021/12/29 09:46:13;;;;;;;4.55;1.23;;;;;;;;;;4942140;29;20458;-66
2021/12/29 09:48:40;;;;;;;5.75;1.20;;;;;;;;;;4944238;28;20103;-66
2021/12/29 09:51:08;;;;;;;3.53;1.17;;;;;;;;;;4941425;28;20134;-63
2021/12/29 09:53:35;;;;;;;6.75;1.95;;;;;;;;;;4949881;28;20118;-65
2021/12/29 09:56:05;;;;;;;4.68;1.45;;;;;;;;;;4951926;29;20138;-64
2021/12/29 09:58:32;;;;;;;5.82;1.23;;;;;;;;;;4951584;28;20111;-66
2021/12/29 10:01:04;;;;;;;4.68;1.40;;;;;;;;;;4943803;28;20102;-65
2021/12/29 10:03:32;;;;;;;2.95;0.88;;;;;;;;;;4944939;28;20052;-64
2021/12/29 10:06:00;;;;;;;2.70;0.93;;;;;;;;;;4935174;29;20123;-69
2021/12/29 10:08:31;;;;;;;5.07;0.85;;;;;;;;;;4963919;28;20090;-69
2021/12/29 10:11:05;;;;;;;3.35;0.95;;;;;;;;;;4960797;28;20043;-70
2021/12/29 10:13:34;;;;;;;2.38;0.80;;;;;;;;;;4961824;28;20106;-67
2021/12/29 10:16:06;;;;;;;1.75;0.88;;;;;;;;;;4964032;28;20059;-69
2021/12/29 10:18:36;;;;;;;2.75;1.52;;;;;;;;;;4962502;28;20078;-66
2021/12/29 10:21:07;;;;;;;2.88;1.00;;;;;;;;;;4965157;28;20422;-65
2021/12/29 10:23:47;;;;;;;2.80;0.88;;;;;;;;;;4960220;28;20086;-69
2021/12/29 10:26:36;;;;;;;1.95;0.70;;;;;;;;;;4959444;28;20524;-65
2021/12/29 10:29:07;;;;;;;2.25;0.80;;;;;;;;;;4971295;28;20051;-68
2021/12/29 10:31:46;;;;;;;4.25;1.48;;;;;;;;;;4961293;28;20582;-67
2021/12/29 10:34:19;;;;;;;2.72;1.58;;;;;;;;;;4959869;28;20051;-65
2021/12/29 10:36:52;;;;;;;4.15;1.60;;;;;;;;;;4973407;28;20074;-65
2021/12/29 10:39:23;;;;;;;4.13;1.40;;;;;;;;;;4961346;28;20391;-68
2021/12/29 10:41:55;;;;;;;4.03;1.65;;;;;;;;;;4974387;28;20055;-66
2021/12/29 10:44:29;;;;;;;5.00;1.92;;;;;;;;;;4973839;28;20055;-66
2021/12/29 10:46:56;;;;;;;3.63;1.42;;;;;;;;;;4967265;28;20046;-65
2021/12/29 10:49:25;;;;;;;3.65;1.10;;;;;;;;;;4955392;28;20049;-66
2021/12/29 10:51:52;;;;;;;5.03;1.85;;;;;;;;;;4960037;28;20055;-67
2021/12/29 10:54:20;;;;;;;5.72;1.30;;;;;;;;;;4957853;28;20110;-67
2021/12/29 10:56:58;;;;;;;3.10;1.25;;;;;;;;;;4967716;28;20086;-67
2021/12/29 10:59:29;;;;;;;7.22;1.48;;;;;;;;;;4960347;28;20077;-69
2021/12/29 11:01:56;;;;;;;3.45;1.30;;;;;;;;;;4951994;29;20093;-69
2021/12/29 11:04:24;;;;;;;4.50;1.45;;;;;;;;;;4960962;28;20059;-66
2021/12/29 11:06:56;;;;;;;6.90;1.58;;;;;;;;;;4968993;28;20047;-68
2021/12/29 11:09:25;;;;;;;4.78;1.25;;;;;;;;;;4959840;28;20058;-68
2021/12/29 11:11:52;;;;;;;3.83;1.38;;;;;;;;;;4957952;28;20059;-66
2021/12/29 11:14:23;;;;;;;3.00;1.05;;;;;;;;;;4959280;28;20470;-66
2021/12/29 11:17:00;;;;;;;2.47;0.85;;;;;;;;;;4964210;28;20054;-66
2021/12/29 11:19:27;;;;;;;2.88;1.13;;;;;;;;;;4957329;28;20047;-65
2021/12/29 11:22:05;;;;;;;3.50;1.00;;;;;;;;;;4961103;28;20110;-65
2021/12/29 11:24:32;;;;;;;2.35;1.10;;;;;;;;;;4958979;28;20055;-67
2021/12/29 11:26:59;;;;;;;5.75;1.25;;;;;;;;;;4944307;28;20050;-68
2021/12/29 11:29:25;;;;;;;1.85;0.85;;;;;;;;;;4969158;28;20502;-66
2021/12/29 11:32:01;;;;;;;2.70;0.73;;;;;;;;;;4959641;28;20495;-66
2021/12/29 11:34:28;;;;;;;3.42;1.25;;;;;;;;;;4968847;28;20047;-69
2021/12/29 11:37:07;;;;;;;3.08;0.90;;;;;;;;;;4961015;28;20098;-69
2021/12/29 11:39:36;;;;;;;3.08;1.10;;;;;;;;;;4940146;29;20102;-66
2021/12/29 11:42:03;;;;;;;1.88;0.80;;;;;;;;;;4968591;28;20047;-67
2021/12/29 11:44:30;;;;;;;3.40;1.00;;;;;;;;;;4960851;28;20051;-66
2021/12/29 11:46:57;;;;;;;5.78;1.88;;;;;;;;;;4962603;28;20043;-66
2021/12/29 11:49:23;;;;;;;8.02;1.70;;;;;;;;;;4970348;28;20105;-68
2021/12/29 11:52:14;;;;;;;2.47;1.10;;;;;;;;;;4961104;28;20059;-69
2021/12/29 11:55:02;;;;;;;3.10;1.17;;;;;;;;;;4968957;28;20063;-68
2021/12/29 11:57:31;;;;;;;2.17;1.15;;;;;;;;;;4957940;28;20154;-67
2021/12/29 12:00:17;;;;;;;4.78;1.15;;;;;;;;;;4954617;28;20097;-71
2021/12/29 12:02:46;;;;;;;5.18;2.25;;;;;;;;;;4959131;28;20562;-67
2021/12/29 12:05:18;;;;;;;3.78;2.08;;;;;;;;;;4944435;28;20577;-67
2021/12/29 12:07:45;;;;;;;3.22;1.05;;;;;;;;;;4954746;28;20054;-68
2021/12/29 12:10:25;;;;;;;2.88;0.98;;;;;;;;;;4960884;28;20563;-66
2021/12/29 12:12:53;;;;;;;2.55;1.20;;;;;;;;;;4961618;28;20063;-66
2021/12/29 12:15:31;;;;;;;4.70;0.90;;;;;;;;;;4961064;28;20061;-67
2021/12/29 12:18:06;;;;;;;4.80;1.35;;;;;;;;;;4976705;28;20102;-66
2021/12/29 12:20:47;;;;;;;5.57;1.10;;;;;;;;;;4975103;28;20507;-67
2021/12/29 12:23:23;;;;;;;2.83;1.10;;;;;;;;;;4962422;28;20085;-67
2021/12/29 12:25:50;;;;;;;5.07;1.73;;;;;;;;;;4964541;28;20070;-66
2021/12/29 12:28:18;;;;;;;3.70;1.17;;;;;;;;;;4962180;28;20093;-68
2021/12/29 12:30:46;;;;;;;1.80;0.77;;;;;;;;;;4976065;28;20114;-68
2021/12/29 12:33:17;;;;;;;1.42;0.70;;;;;;;;;;4966414;28;20059;-68
2021/12/29 12:35:50;;;;;;;1.48;0.70;;;;;;;;;;4969505;28;20047;-68
2021/12/29 12:38:32;;;;;;;3.40;1.42;;;;;;;;;;4935364;28;20051;-67
2021/12/29 12:41:16;;;;;;;4.20;1.63;;;;;;;;;;4969818;28;20572;-67
2021/12/29 12:43:53;;;;;;;4.22;1.00;;;;;;;;;;4959621;28;20110;-66
2021/12/29 12:46:32;;;;;;;2.90;1.08;;;;;;;;;;4959459;28;20062;-67
2021/12/29 12:48:59;;;;;;;2.95;1.95;;;;;;;;;;4964882;28;20050;-66
2021/12/29 12:51:26;;;;;;;4.03;0.90;;;;;;;;;;4947437;28;20052;-67
2021/12/29 12:53:53;;;;;;;3.15;1.05;;;;;;;;;;4963852;28;20051;-66
2021/12/29 12:56:25;;;;;;;2.05;0.90;;;;;;;;;;4962871;28;20114;-66
2021/12/29 12:58:55;;;;;;;4.20;1.02;;;;;;;;;;4977623;28;20047;-66
2021/12/29 13:01:25;;;;;;;3.55;0.80;;;;;;;;;;4971434;28;20047;-65
2021/12/29 13:04:03;;;;;;;3.28;0.82;;;;;;;;;;4973490;28;20061;-66
2021/12/29 13:06:32;;;;;;;2.70;1.45;;;;;;;;;;4963479;28;20101;-67
2021/12/29 13:09:01;;;;;;;4.15;1.20;;;;;;;;;;4976626;28;20051;-66
2021/12/29 13:11:33;;;;;;;5.07;1.02;;;;;;;;;;4989624;23;20054;-67
2021/12/29 13:14:02;;;;;;;5.57;1.52;;;;;;;;;;4947478;28;20058;-69
2021/12/29 13:16:29;;;;;;;6.47;1.20;;;;;;;;;;4965888;28;20191;-70
2021/12/29 13:18:57;;;;;;;7.35;1.30;;;;;;;;;;4949429;28;20078;-68
2021/12/29 13:21:40;;;;;;;8.80;1.55;;;;;;;;;;4964733;28;20051;-66
2021/12/29 13:24:10;;;;;;;7.28;1.90;;;;;;;;;;4972411;28;20465;-68
2021/12/29 13:26:39;;;;;;;3.85;1.00;;;;;;;;;;4974309;28;20520;-69
2021/12/29 13:29:08;;;;;;;4.55;1.52;;;;;;;;;;4970973;28;20047;-68
2021/12/29 13:31:35;;;;;;;10.05;1.67;;;;;;;;;;4972811;28;20038;-67
2021/12/29 13:34:02;;;;;;;9.50;1.88;;;;;;;;;;4967214;28;20054;-67
2021/12/29 13:36:28;;;;;;;3.92;1.05;;;;;;;;;;4972792;28;20043;-68
2021/12/29 13:38:57;;;;;;;5.78;2.22;;;;;;;;;;4956319;28;20105;-67
2021/12/29 13:41:31;;;;;;;4.60;1.42;;;;;;;;;;4972637;28;20051;-65
2021/12/29 13:44:01;;;;;;;8.60;2.35;;;;;;;;;;4973433;28;20047;-64
2021/12/29 13:46:34;;;;;;;5.70;1.65;;;;;;;;;;4951817;28;20051;-67
2021/12/29 13:49:03;;;;;;;4.70;1.60;;;;;;;;;;4973386;28;20395;-65
2021/12/29 13:51:32;;;;;;;5.47;1.98;;;;;;;;;;4971711;28;20043;-65
2021/12/29 13:54:10;;;;;;;5.70;1.40;;;;;;;;;;4969430;28;20187;-65
2021/12/29 13:56:52;;;;;;;8.50;1.83;;;;;;;;;;4953799;28;20510;-65
2021/12/29 13:59:20;;;;;;;9.20;1.85;;;;;;;;;;4965886;28;20058;-67
2021/12/29 14:01:54;;;;;;;6.05;1.80;;;;;;;;;;4972148;28;20130;-66
2021/12/29 14:04:25;;;;;;;6.93;2.35;;;;;;;;;;4965695;28;20129;-65
2021/12/29 14:06:54;;;;;;;3.90;1.40;;;;;;;;;;4972680;28;20109;-65
2021/12/29 14:09:21;;;;;;;8.57;1.35;;;;;;;;;;4956273;28;20078;-65
2021/12/29 14:11:48;;;;;;;10.02;2.45;;;;;;;;;;4953907;28;20125;-65
2021/12/29 14:14:15;;;;;;;3.78;1.65;;;;;;;;;;4968358;28;20461;-65
2021/12/29 14:16:48;;;;;;;6.45;2.53;;;;;;;;;;4973056;28;20054;-68
2021/12/29 14:19:16;;;;;;;8.77;2.88;;;;;;;;;;4955584;28;20054;-65
2021/12/29 14:21:43;;;;;;;9.32;2.60;;;;;;;;;;4971747;28;20038;-67
2021/12/29 14:24:12;;;;;;;4.20;1.98;;;;;;;;;;4963177;28;20052;-65
2021/12/29 14:26:45;;;;;;;4.25;2.05;;;;;;;;;;4956337;28;20105;-66
2021/12/29 14:29:15;;;;;;;5.20;2.58;;;;;;;;;;4971909;28;20105;-66
2021/12/29 14:31:46;;;;;;;5.05;2.67;;;;;;;;;;4972452;28;20054;-67
2021/12/29 14:34:14;;;;;;;6.15;2.20;;;;;;;;;;4971035;28;20051;-66
2021/12/29 14:36:49;;;;;;;6.65;2.05;;;;;;;;;;4952948;28;20146;-66
2021/12/29 14:39:22;;;;;;;3.50;1.10;;;;;;;;;;4972267;28;20051;-65
2021/12/29 14:42:12;;;;;;;3.50;1.42;;;;;;;;;;4965913;28;20438;-66
2021/12/29 14:44:46;;;;;;;7.20;2.03;;;;;;;;;;4970862;28;20109;-67
2021/12/29 14:47:14;;;;;;;3.65;1.50;;;;;;;;;;4964833;28;20054;-66
2021/12/29 14:49:42;;;;;;;6.22;2.15;;;;;;;;;;4949488;28;20449;-71
2021/12/29 14:52:11;;;;;;;5.43;1.75;;;;;;;;;;4967584;28;20467;-72
2021/12/29 14:54:40;;;;;;;2.10;0.90;;;;;;;;;;4965464;28;20047;-68
2021/12/29 14:57:12;;;;;;;4.45;1.40;;;;;;;;;;4955326;28;20494;-67